createdAt,value
2023-02-17T00:00:38.606Z,7.23
2023-02-17T00:03:23.031Z,7.23
2023-02-17T00:05:50.887Z,7.26
2023-02-17T00:08:17.884Z,7.25
2023-02-17T00:10:44.207Z,7.32
2023-02-17T00:13:10.770Z,7.36
2023-02-17T00:15:40.107Z,7.40
2023-02-17T00:18:06.633Z,7.41
2023-02-17T00:20:32.877Z,7.43
2023-02-17T00:22:59.421Z,7.38
2023-02-17T00:25:25.786Z,7.39
2023-02-17T00:27:52.237Z,7.36
2023-02-17T00:30:18.615Z,7.39
2023-02-17T00:32:45.181Z,7.32
2023-02-17T00:35:12.252Z,7.36
2023-02-17T00:37:44.828Z,7.43
2023-02-17T00:40:12.502Z,7.39
2023-02-17T00:42:38.981Z,7.48
2023-02-17T00:45:06.293Z,7.53
2023-02-17T00:47:33.162Z,7.52
2023-02-17T00:49:59.596Z,7.50
2023-02-17T00:52:26.736Z,7.51
2023-02-17T00:54:52.995Z,7.52
2023-02-17T00:57:19.468Z,7.59
2023-02-17T00:59:45.660Z,7.59
2023-02-17T01:02:12.101Z,7.63
2023-02-17T01:04:38.280Z,7.64
2023-02-17T01:07:04.712Z,7.67
2023-02-17T01:09:30.881Z,7.70
2023-02-17T01:11:57.502Z,7.69
2023-02-17T01:14:24.044Z,7.70
2023-02-17T01:16:50.610Z,7.70
2023-02-17T01:19:18.763Z,7.76
2023-02-17T01:21:48.365Z,7.73
2023-02-17T01:24:15.779Z,7.78
2023-02-17T01:26:42.288Z,7.82
2023-02-17T01:29:08.536Z,7.82
2023-02-17T01:31:35.515Z,7.79
2023-02-17T01:34:03.550Z,7.79
2023-02-17T01:36:30.277Z,7.70
2023-02-17T01:38:56.759Z,7.74
2023-02-17T01:41:28.880Z,7.77
2023-02-17T01:44:13.496Z,7.78
2023-02-17T01:46:42.370Z,7.80
2023-02-17T01:49:16.981Z,7.79
2023-02-17T01:51:46.334Z,7.78
2023-02-17T01:54:19.644Z,7.74
2023-02-17T01:56:48.066Z,7.74
2023-02-17T01:59:19.214Z,7.75
2023-02-17T02:01:54.025Z,7.75
2023-02-17T02:04:23.885Z,7.74
2023-02-17T02:06:50.468Z,7.76
2023-02-17T02:09:24.967Z,7.77
2023-02-17T02:11:51.847Z,7.79
2023-02-17T02:14:20.216Z,7.77
2023-02-17T02:17:34.102Z,7.79
2023-02-17T02:20:15.329Z,7.76
2023-02-17T02:23:12.229Z,7.76
2023-02-17T02:26:06.168Z,7.79
2023-02-17T02:28:56.188Z,7.78
2023-02-17T02:32:00.248Z,7.83
2023-02-17T02:34:45.048Z,7.82
2023-02-17T02:37:21.226Z,7.78
2023-02-17T02:39:53.233Z,7.82
2023-02-17T02:42:23.703Z,7.87
2023-02-17T02:44:50.699Z,7.85
2023-02-17T02:47:41.965Z,7.87
2023-02-17T02:50:12.147Z,7.84
2023-02-17T02:53:03.583Z,7.86
2023-02-17T02:55:48.862Z,7.91
2023-02-17T02:58:26.848Z,7.90
2023-02-17T03:01:13.288Z,7.87
2023-02-17T03:03:47.956Z,7.91
2023-02-17T03:06:25.576Z,7.86
2023-02-17T03:09:10.445Z,7.87
2023-02-17T03:11:37.326Z,7.87
2023-02-17T03:14:06.995Z,7.90
2023-02-17T03:16:35.992Z,7.90
2023-02-17T03:19:02.471Z,7.95
2023-02-17T03:21:37.100Z,7.97
2023-02-17T03:24:04.426Z,7.95
2023-02-17T03:26:31.189Z,7.98
2023-02-17T03:28:57.484Z,7.97
2023-02-17T03:31:24.554Z,7.97
2023-02-17T03:33:50.807Z,7.93
2023-02-17T03:36:17.494Z,7.96
2023-02-17T03:38:43.746Z,8.02
2023-02-17T03:41:10.302Z,7.96
2023-02-17T03:43:36.546Z,7.95
2023-02-17T03:46:03.811Z,7.92
2023-02-17T03:48:30.355Z,7.93
2023-02-17T03:50:57.146Z,7.91
2023-02-17T03:53:23.495Z,7.95
2023-02-17T03:55:49.936Z,7.87
2023-02-17T03:58:16.205Z,7.93
2023-02-17T04:00:42.636Z,7.85
2023-02-17T04:03:08.878Z,7.84
2023-02-17T04:05:35.426Z,7.80
2023-02-17T04:08:01.598Z,7.84
2023-02-17T04:10:28.152Z,7.82
2023-02-17T04:12:54.400Z,7.79
2023-02-17T04:15:21.053Z,7.76
2023-02-17T04:17:47.380Z,7.74
2023-02-17T04:20:13.828Z,7.78
2023-02-17T04:22:40.044Z,7.77
2023-02-17T04:25:06.713Z,7.74
2023-02-17T04:27:33.230Z,7.70
2023-02-17T04:29:59.804Z,7.76
2023-02-17T04:32:26.003Z,7.74
2023-02-17T04:34:52.471Z,7.75
2023-02-17T04:37:18.556Z,7.77
2023-02-17T04:39:45.051Z,7.79
2023-02-17T04:42:11.209Z,7.78
2023-02-17T04:44:37.817Z,7.82
2023-02-17T04:47:04.048Z,7.80
2023-02-17T04:49:30.824Z,7.84
2023-02-17T04:51:57.089Z,7.87
2023-02-17T04:54:23.636Z,7.86
2023-02-17T04:56:49.988Z,7.87
2023-02-17T04:59:16.542Z,7.90
2023-02-17T05:01:43.068Z,7.90
2023-02-17T05:04:09.647Z,7.93
2023-02-17T05:06:35.880Z,7.94
2023-02-17T05:09:02.677Z,7.91
2023-02-17T05:11:30.771Z,7.97
2023-02-17T05:13:57.320Z,7.97
2023-02-17T05:16:23.575Z,7.92
2023-02-17T05:18:50.341Z,7.96
2023-02-17T05:21:16.645Z,7.96
2023-02-17T05:23:43.128Z,7.95
2023-02-17T05:26:10.074Z,8.00
2023-02-17T05:28:36.917Z,8.03
2023-02-17T05:31:03.959Z,8.04
2023-02-17T05:33:30.599Z,8.04
2023-02-17T05:36:01.556Z,8.07
2023-02-17T05:38:28.194Z,8.08
2023-02-17T05:40:54.990Z,8.05
2023-02-17T05:43:21.728Z,8.08
2023-02-17T05:45:48.163Z,8.10
2023-02-17T05:48:15.103Z,8.11
2023-02-17T05:50:41.381Z,8.10
2023-02-17T05:53:08.039Z,8.12
2023-02-17T05:55:34.495Z,8.10
2023-02-17T05:58:01.255Z,8.12
2023-02-17T06:00:28.111Z,8.12
2023-02-17T06:02:55.044Z,8.16
2023-02-17T06:05:21.536Z,8.16
2023-02-17T06:07:48.386Z,8.18
2023-02-17T06:10:14.653Z,8.17
2023-02-17T06:12:41.214Z,8.18
2023-02-17T06:15:07.616Z,8.18
2023-02-17T06:17:34.116Z,8.19
2023-02-17T06:20:00.537Z,8.19
2023-02-17T06:22:27.134Z,8.19
2023-02-17T06:24:53.542Z,8.17
2023-02-17T06:27:20.934Z,8.20
2023-02-17T06:29:47.229Z,8.22
2023-02-17T06:32:13.841Z,8.26
2023-02-17T06:34:40.070Z,8.30
2023-02-17T06:37:06.599Z,8.29
2023-02-17T06:39:32.837Z,8.30
2023-02-17T06:41:59.656Z,8.32
2023-02-17T06:44:26.086Z,8.27
2023-02-17T06:46:52.725Z,8.28
2023-02-17T06:49:19.023Z,8.29
2023-02-17T06:51:45.585Z,8.30
2023-02-17T06:54:11.894Z,8.34
2023-02-17T06:56:38.374Z,8.32
2023-02-17T06:59:04.797Z,8.38
2023-02-17T07:01:31.348Z,8.40
2023-02-17T07:03:57.657Z,8.45
2023-02-17T07:06:25.174Z,8.48
2023-02-17T07:08:51.794Z,8.52
2023-02-17T07:11:18.597Z,8.47
2023-02-17T07:13:45.176Z,8.55
2023-02-17T07:16:13.144Z,8.49
2023-02-17T07:18:39.658Z,8.49
2023-02-17T07:21:08.610Z,8.57
2023-02-17T07:23:35.738Z,8.56
2023-02-17T07:26:05.324Z,8.59
2023-02-17T07:28:31.789Z,8.64
2023-02-17T07:31:04.891Z,8.69
2023-02-17T07:33:31.457Z,8.72
2023-02-17T07:35:58.006Z,8.75
2023-02-17T07:38:24.188Z,8.77
2023-02-17T07:40:50.665Z,8.73
2023-02-17T07:43:16.831Z,8.72
2023-02-17T07:45:44.740Z,8.75
2023-02-17T07:48:10.951Z,8.70
2023-02-17T07:50:37.513Z,8.69
2023-02-17T07:53:03.828Z,8.76
2023-02-17T07:55:30.585Z,8.76
2023-02-17T07:57:59.260Z,8.82
2023-02-17T08:00:26.274Z,8.82
2023-02-17T08:02:52.461Z,8.86
2023-02-17T08:05:19.206Z,8.86
2023-02-17T08:07:45.458Z,8.84
2023-02-17T08:10:31.375Z,8.90
2023-02-17T08:13:16.289Z,8.90
2023-02-17T08:15:42.894Z,8.85
2023-02-17T08:18:09.403Z,8.83
2023-02-17T08:20:35.888Z,8.86
2023-02-17T08:23:02.889Z,8.84
2023-02-17T08:25:33.713Z,8.86
2023-02-17T08:28:00.357Z,8.84
2023-02-17T08:30:27.546Z,8.95
2023-02-17T08:32:54.084Z,8.96
2023-02-17T08:35:23.684Z,8.97
2023-02-17T08:37:50.220Z,9.02
2023-02-17T08:40:18.669Z,9.05
2023-02-17T08:42:45.025Z,9.04
2023-02-17T08:45:13.993Z,9.00
2023-02-17T08:47:40.817Z,8.98
2023-02-17T08:50:09.682Z,9.02
2023-02-17T08:52:36.060Z,8.97
2023-02-17T08:55:03.152Z,9.02
2023-02-17T08:57:29.876Z,9.04
2023-02-17T08:59:56.553Z,9.13
2023-02-17T09:02:23.032Z,9.16
2023-02-17T09:04:49.835Z,9.13
2023-02-17T09:07:16.169Z,9.13
2023-02-17T09:09:42.714Z,9.14
2023-02-17T09:12:09.202Z,9.15
2023-02-17T09:14:38.410Z,9.27
2023-02-17T09:17:05.237Z,9.28
2023-02-17T09:19:31.860Z,9.35
2023-02-17T09:21:58.197Z,9.42
2023-02-17T09:24:24.751Z,9.40
2023-02-17T09:26:51.177Z,9.45
2023-02-17T09:29:18.156Z,9.46
2023-02-17T09:31:45.309Z,9.46
2023-02-17T09:34:12.090Z,9.44
2023-02-17T09:36:40.688Z,9.44
2023-02-17T09:39:09.020Z,9.55
2023-02-17T09:41:37.288Z,9.52
2023-02-17T09:44:31.619Z,9.62
2023-02-17T09:47:12.607Z,9.58
2023-02-17T09:49:44.199Z,9.68
2023-02-17T09:52:16.646Z,9.71
2023-02-17T09:54:57.336Z,9.79
2023-02-17T09:57:27.518Z,9.74
2023-02-17T10:00:00.913Z,9.72
2023-02-17T10:02:39.230Z,9.72
2023-02-17T10:05:11.078Z,9.78
2023-02-17T10:07:47.567Z,9.86
2023-02-17T10:10:25.404Z,9.82
2023-02-17T10:12:56.177Z,9.77
2023-02-17T10:15:27.028Z,9.85
2023-02-17T10:18:30.016Z,9.80
2023-02-17T10:21:04.092Z,9.78
2023-02-17T10:23:30.719Z,9.70
2023-02-17T10:26:23.265Z,9.69
2023-02-17T10:29:00.048Z,9.71
2023-02-17T10:31:44.681Z,9.80
2023-02-17T10:34:20.307Z,9.84
2023-02-17T10:37:20.224Z,9.83
2023-02-17T10:39:54.298Z,9.79
2023-02-17T10:42:26.363Z,9.83
2023-02-17T10:44:59.834Z,9.85
2023-02-17T10:47:26.678Z,9.93
2023-02-17T10:49:55.756Z,10.00
2023-02-17T10:52:31.503Z,10.04
2023-02-17T10:55:21.001Z,10.12
2023-02-17T10:57:57.309Z,10.11
2023-02-17T11:00:23.623Z,10.11
2023-02-17T11:02:51.622Z,10.13
2023-02-17T11:05:33.448Z,10.14
2023-02-17T11:08:04.865Z,10.11
2023-02-17T11:10:34.910Z,10.21
2023-02-17T11:13:03.867Z,10.22
2023-02-17T11:15:35.561Z,10.20
2023-02-17T11:18:10.583Z,10.26
2023-02-17T11:20:38.194Z,10.21
2023-02-17T11:23:22.806Z,10.25
2023-02-17T11:26:01.770Z,10.22
2023-02-17T11:28:28.743Z,10.21
2023-02-17T11:30:58.070Z,10.23
2023-02-17T11:33:35.333Z,10.26
2023-02-17T11:36:02.211Z,10.28
2023-02-17T11:38:39.464Z,10.35
2023-02-17T11:41:07.357Z,10.40
2023-02-17T11:43:35.914Z,10.43
2023-02-17T11:46:21.529Z,10.45
2023-02-17T11:49:17.376Z,10.42
2023-02-17T11:51:55.894Z,10.45
2023-02-17T11:54:30.888Z,10.36
2023-02-17T11:57:27.569Z,10.38
2023-02-17T12:00:16.996Z,10.41
2023-02-17T12:02:58.306Z,10.30
2023-02-17T12:05:33.916Z,10.39
2023-02-17T12:08:21.356Z,10.45
2023-02-17T12:11:08.916Z,10.52
2023-02-17T12:13:55.349Z,10.51
2023-02-17T12:16:46.932Z,10.60
2023-02-17T12:19:41.134Z,10.70
2023-02-17T12:22:17.696Z,10.68
2023-02-17T12:25:19.200Z,10.76
2023-02-17T12:27:52.617Z,10.74
2023-02-17T12:30:29.259Z,10.79
2023-02-17T12:33:01.792Z,10.74
2023-02-17T12:35:45.101Z,10.69
2023-02-17T12:38:16.187Z,10.65
2023-02-17T12:40:49.717Z,10.55
2023-02-17T12:43:23.538Z,10.71
2023-02-17T12:45:50.769Z,10.67
2023-02-17T12:48:24.783Z,10.57
2023-02-17T12:51:25.510Z,10.64
2023-02-17T12:54:07.659Z,10.60
2023-02-17T12:57:12.484Z,10.59
2023-02-17T12:59:41.978Z,10.51
2023-02-17T13:02:13.030Z,10.53
2023-02-17T13:04:42.595Z,10.52
2023-02-17T13:07:25.708Z,10.49
2023-02-17T13:09:55.804Z,10.50
2023-02-17T13:12:22.076Z,10.49
2023-02-17T13:15:00.501Z,10.40
2023-02-17T13:17:36.385Z,10.39
2023-02-17T13:20:04.939Z,10.33
2023-02-17T13:22:32.263Z,10.38
2023-02-17T13:25:00.313Z,10.34
2023-02-17T13:27:27.834Z,10.39
2023-02-17T13:30:28.394Z,10.25
2023-02-17T13:33:05.142Z,10.21
2023-02-17T13:35:36.708Z,10.22
2023-02-17T13:38:03.845Z,10.27
2023-02-17T13:40:36.814Z,10.26
2023-02-17T13:43:17.414Z,10.28
2023-02-17T13:45:59.220Z,10.33
2023-02-17T13:48:31.852Z,10.36
2023-02-17T13:51:00.333Z,10.36
2023-02-17T13:53:38.658Z,10.40
2023-02-17T13:56:23.805Z,10.39
2023-02-17T13:58:50.099Z,10.39
2023-02-17T14:01:28.165Z,10.43
2023-02-17T14:03:55.589Z,10.38
2023-02-17T14:06:39.800Z,10.36
2023-02-17T14:09:18.209Z,10.39
2023-02-17T14:11:49.299Z,10.38
2023-02-17T14:14:20.266Z,10.39
2023-02-17T14:17:27.821Z,10.42
2023-02-17T14:20:02.996Z,10.40
2023-02-17T14:22:38.598Z,10.40
2023-02-17T14:25:13.665Z,10.35
2023-02-17T14:31:50.073Z,10.35
2023-02-17T14:34:36.393Z,10.31
2023-02-17T14:37:25.800Z,10.38
2023-02-17T14:39:58.752Z,10.35
2023-02-17T14:42:35.915Z,10.41
2023-02-17T14:45:04.623Z,10.42
2023-02-17T14:47:42.247Z,10.51
2023-02-17T14:50:09.547Z,10.49
2023-02-17T14:52:48.817Z,10.41
2023-02-17T14:55:45.895Z,10.42
2023-02-17T14:58:19.488Z,10.45
2023-02-17T15:00:47.658Z,10.42
2023-02-17T15:03:14.577Z,10.32
2023-02-17T15:05:41.691Z,10.37
2023-02-17T15:08:17.889Z,10.37
2023-02-17T15:10:45.173Z,10.34
2023-02-17T15:13:17.934Z,10.38
2023-02-17T15:15:46.899Z,10.37
2023-02-17T15:18:16.136Z,10.48
2023-02-17T15:20:45.011Z,10.42
2023-02-17T15:23:14.245Z,10.43
2023-02-17T15:25:41.322Z,10.42
2023-02-17T15:28:11.297Z,10.43
2023-02-17T15:30:38.047Z,10.48
2023-02-17T15:33:10.440Z,10.43
2023-02-17T15:35:39.353Z,10.48
2023-02-17T15:38:09.272Z,10.45
2023-02-17T15:40:36.313Z,10.41
2023-02-17T15:43:02.893Z,10.39
2023-02-17T15:45:30.232Z,10.45
2023-02-17T15:48:03.895Z,10.41
2023-02-17T15:50:31.237Z,10.36
2023-02-17T15:52:58.399Z,10.45
2023-02-17T15:55:27.666Z,10.44
2023-02-17T15:57:57.625Z,10.43
2023-02-17T16:00:27.340Z,10.46
2023-02-17T16:02:54.097Z,10.45
2023-02-17T16:05:23.591Z,10.45
2023-02-17T16:07:50.858Z,10.49
2023-02-17T16:10:20.249Z,10.45
2023-02-17T16:12:48.630Z,10.47
2023-02-17T16:15:18.535Z,10.55
2023-02-17T16:17:47.988Z,10.53
2023-02-17T16:20:21.431Z,10.54
2023-02-17T16:22:48.335Z,10.56
2023-02-17T16:25:16.616Z,10.51
2023-02-17T16:27:44.537Z,10.49
2023-02-17T16:30:34.217Z,10.53
2023-02-17T16:33:01.857Z,10.54
2023-02-17T16:35:31.386Z,10.53
2023-02-17T16:38:06.047Z,10.52
2023-02-17T16:40:36.263Z,10.55
2023-02-17T16:43:02.979Z,10.60
2023-02-17T16:45:32.467Z,10.62
2023-02-17T16:48:01.508Z,10.61
2023-02-17T16:50:34.253Z,10.68
2023-02-17T16:53:08.005Z,10.67
2023-02-17T16:55:36.270Z,10.66
2023-02-17T16:58:03.754Z,10.75
2023-02-17T17:00:32.132Z,10.77
2023-02-17T17:02:58.416Z,10.80
2023-02-17T17:05:27.729Z,10.89
2023-02-17T17:07:55.086Z,10.91
2023-02-17T17:10:27.967Z,10.96
2023-02-17T17:12:54.640Z,11.00
2023-02-17T17:15:21.915Z,11.08
2023-02-17T17:17:49.659Z,11.14
2023-02-17T17:20:23.442Z,11.17
2023-02-17T17:22:50.909Z,11.19
2023-02-17T17:25:20.774Z,11.24
2023-02-17T17:27:47.457Z,11.29
2023-02-17T17:30:19.287Z,11.37
2023-02-17T17:32:48.249Z,11.39
2023-02-17T17:35:15.986Z,11.42
2023-02-17T17:37:45.502Z,11.46
2023-02-17T17:40:24.196Z,11.49
2023-02-17T17:42:51.703Z,11.54
2023-02-17T17:45:18.910Z,11.58
2023-02-17T17:47:45.277Z,11.63
2023-02-17T17:50:22.808Z,11.66
2023-02-17T17:52:49.280Z,11.68
2023-02-17T17:55:16.185Z,11.70
2023-02-17T17:57:43.738Z,11.73
2023-02-17T18:00:13.491Z,11.67
2023-02-17T18:02:43.256Z,11.76
2023-02-17T18:05:13.744Z,11.76
2023-02-17T18:07:43.383Z,11.77
2023-02-17T18:10:14.116Z,11.84
2023-02-17T18:12:43.940Z,11.84
2023-02-17T18:15:11.342Z,11.82
2023-02-17T18:17:40.808Z,11.82
2023-02-17T18:20:12.571Z,11.88
2023-02-17T18:22:39.970Z,11.93
2023-02-17T18:25:07.788Z,11.98
2023-02-17T18:27:42.593Z,12.04
2023-02-17T18:30:11.928Z,12.06
2023-02-17T18:32:38.270Z,12.03
2023-02-17T18:35:05.502Z,12.04
2023-02-17T18:37:32.792Z,12.09
2023-02-17T18:40:01.579Z,12.11
2023-02-17T18:42:27.905Z,12.09
2023-02-17T18:44:56.056Z,12.12
2023-02-17T18:47:22.903Z,12.15
2023-02-17T18:49:50.163Z,12.19
2023-02-17T18:52:17.065Z,12.24
2023-02-17T18:54:44.961Z,12.22
2023-02-17T18:57:11.699Z,12.25
2023-02-17T18:59:38.308Z,12.32
2023-02-17T19:02:07.897Z,12.37
2023-02-17T19:04:37.011Z,12.43
2023-02-17T19:07:06.458Z,12.47
2023-02-17T19:09:37.195Z,12.44
2023-02-17T19:12:05.478Z,12.46
2023-02-17T19:14:32.424Z,12.47
2023-02-17T19:16:58.958Z,12.49
2023-02-17T19:19:28.505Z,12.51
2023-02-17T19:21:55.021Z,12.49
2023-02-17T19:24:21.889Z,12.52
2023-02-17T19:26:48.269Z,12.54
2023-02-17T19:29:14.917Z,12.56
2023-02-17T19:31:41.192Z,12.58
2023-02-17T19:34:07.843Z,12.58
2023-02-17T19:36:34.253Z,12.59
2023-02-17T19:39:01.022Z,12.59
2023-02-17T19:41:27.643Z,12.61
2023-02-17T19:43:54.392Z,12.62
2023-02-17T19:46:22.196Z,12.65
2023-02-17T19:48:49.092Z,12.67
2023-02-17T19:51:18.846Z,12.61
2023-02-17T19:53:46.301Z,12.60
2023-02-17T19:56:25.547Z,12.64
2023-02-17T19:58:52.835Z,12.61
2023-02-17T20:01:24.727Z,12.58
2023-02-17T20:03:53.813Z,12.45
2023-02-17T20:06:23.338Z,12.39
2023-02-17T20:08:59.708Z,12.33
2023-02-17T20:11:27.816Z,12.33
2023-02-17T20:13:57.175Z,12.24
2023-02-17T20:16:23.625Z,12.14
2023-02-17T20:18:50.555Z,12.09
2023-02-17T20:21:22.831Z,12.02
2023-02-17T20:23:54.283Z,11.97
2023-02-17T20:26:25.067Z,11.90
2023-02-17T20:28:52.689Z,11.80
2023-02-17T20:31:26.044Z,11.82
2023-02-17T20:33:56.235Z,11.77
2023-02-17T20:36:24.425Z,11.69
2023-02-17T20:38:51.640Z,11.65
2023-02-17T20:41:21.610Z,11.63
2023-02-17T20:43:50.191Z,11.55
2023-02-17T20:46:26.641Z,11.55
2023-02-17T20:48:55.581Z,11.50
2023-02-17T20:51:22.930Z,11.42
2023-02-17T20:53:50.114Z,11.41
2023-02-17T20:56:20.220Z,11.33
2023-02-17T20:58:47.693Z,11.32
2023-02-17T21:01:14.293Z,11.27
2023-02-17T21:03:41.671Z,11.16
2023-02-17T21:06:28.285Z,11.06
2023-02-17T21:08:58.429Z,11.01
2023-02-17T21:11:25.991Z,10.95
2023-02-17T21:13:53.885Z,10.93
2023-02-17T21:16:23.663Z,10.92
2023-02-17T21:18:50.655Z,10.84
2023-02-17T21:21:17.470Z,10.79
2023-02-17T21:23:44.589Z,10.75
2023-02-17T21:26:12.910Z,10.65
2023-02-17T21:28:40.731Z,10.58
2023-02-17T21:31:07.586Z,10.49
2023-02-17T21:33:41.160Z,10.45
2023-02-17T21:36:10.141Z,10.37
2023-02-17T21:38:37.957Z,10.37
2023-02-17T21:41:07.113Z,10.34
2023-02-17T21:43:52.438Z,10.26
2023-02-17T21:46:20.187Z,10.19
2023-02-17T21:48:48.589Z,10.19
2023-02-17T21:51:15.219Z,10.08
2023-02-17T21:53:42.238Z,10.08
2023-02-17T21:56:09.697Z,10.01
2023-02-17T21:58:37.629Z,9.99
2023-02-17T22:01:07.062Z,9.92
2023-02-17T22:03:34.050Z,9.94
2023-02-17T22:06:00.453Z,9.91
2023-02-17T22:08:26.863Z,9.91
2023-02-17T22:10:53.919Z,9.90
2023-02-17T22:13:20.631Z,9.91
2023-02-17T22:15:56.746Z,9.84
2023-02-17T22:18:23.795Z,9.86
2023-02-17T22:20:50.319Z,9.80
2023-02-17T22:23:16.629Z,9.80
2023-02-17T22:25:43.177Z,9.77
2023-02-17T22:28:10.912Z,9.70
2023-02-17T22:30:38.452Z,9.62
2023-02-17T22:33:04.777Z,9.57
2023-02-17T22:35:31.641Z,9.55
2023-02-17T22:37:58.996Z,9.50
2023-02-17T22:40:26.160Z,9.44
2023-02-17T22:42:52.437Z,9.45
2023-02-17T22:45:18.942Z,9.41
2023-02-17T22:47:45.366Z,9.41
2023-02-17T22:50:11.951Z,9.39
2023-02-17T22:52:38.162Z,9.42
2023-02-17T22:55:05.016Z,9.35
2023-02-17T22:57:31.566Z,9.28
2023-02-17T22:59:58.220Z,9.29
2023-02-17T23:02:24.530Z,9.29
2023-02-17T23:04:51.354Z,9.27
2023-02-17T23:07:17.640Z,9.23
2023-02-17T23:09:44.627Z,9.25
2023-02-17T23:12:10.964Z,9.20
2023-02-17T23:14:39.320Z,9.18
2023-02-17T23:17:08.717Z,9.15
2023-02-17T23:19:36.444Z,9.08
2023-02-17T23:22:06.672Z,9.05
2023-02-17T23:24:34.497Z,9.00
2023-02-17T23:27:02.551Z,9.06
2023-02-17T23:29:30.595Z,8.98
2023-02-17T23:31:57.990Z,9.00
2023-02-17T23:34:24.662Z,8.99
2023-02-17T23:36:50.889Z,8.96
2023-02-17T23:39:17.503Z,8.97
2023-02-17T23:41:43.989Z,8.95
2023-02-17T23:44:12.153Z,8.95
2023-02-17T23:46:39.652Z,8.98
2023-02-17T23:49:06.703Z,8.91
2023-02-17T23:51:33.079Z,8.87
2023-02-17T23:53:59.760Z,8.79
2023-02-17T23:56:32.788Z,8.71
2023-02-17T23:58:59.807Z,8.70
